createdAt,value
2023-04-17T00:00:27.188Z,1018.47
2023-04-17T00:01:27.234Z,1018.46
2023-04-17T00:02:27.309Z,1018.46
2023-04-17T00:03:27.436Z,1018.45
2023-04-17T00:04:27.371Z,1018.46
2023-04-17T00:05:27.311Z,1018.48
2023-04-17T00:06:27.404Z,1018.47
2023-04-17T00:07:27.359Z,1018.49
2023-04-17T00:08:27.359Z,1018.49
2023-04-17T00:09:27.380Z,1018.48
2023-04-17T00:10:27.402Z,1018.47
2023-04-17T00:11:27.426Z,1018.46
2023-04-17T00:12:27.447Z,1018.43
2023-04-17T00:13:27.469Z,1018.42
2023-04-17T00:14:27.491Z,1018.47
2023-04-17T00:15:27.510Z,1018.45
2023-04-17T00:16:27.608Z,1018.47
2023-04-17T00:17:27.599Z,1018.45
2023-04-17T00:18:27.583Z,1018.44
2023-04-17T00:19:27.603Z,1018.48
2023-04-17T00:20:27.635Z,1018.43
2023-04-17T00:21:27.647Z,1018.43
2023-04-17T00:22:27.668Z,1018.46
2023-04-17T00:23:27.701Z,1018.44
2023-04-17T00:24:27.710Z,1018.45
2023-04-17T00:25:27.766Z,1018.41
2023-04-17T00:26:27.760Z,1018.43
2023-04-17T00:27:27.780Z,1018.42
2023-04-17T00:28:27.795Z,1018.42
2023-04-17T00:29:27.824Z,1018.43
2023-04-17T00:30:27.854Z,1018.39
2023-04-17T00:31:27.953Z,1018.39
2023-04-17T00:32:27.910Z,1018.39
2023-04-17T00:33:27.919Z,1018.36
2023-04-17T00:34:27.936Z,1018.36
2023-04-17T00:35:27.962Z,1018.39
2023-04-17T00:36:27.975Z,1018.36
2023-04-17T00:37:28.002Z,1018.36
2023-04-17T00:38:28.026Z,1018.36
2023-04-17T00:39:28.048Z,1018.36
2023-04-17T00:40:28.066Z,1018.38
2023-04-17T00:41:28.095Z,1018.39
2023-04-17T00:42:28.115Z,1018.37
2023-04-17T00:43:28.135Z,1018.37
2023-04-17T00:44:28.154Z,1018.37
2023-04-17T00:45:28.213Z,1018.38
2023-04-17T00:46:28.198Z,1018.39
2023-04-17T00:47:28.237Z,1018.39
2023-04-17T00:48:28.261Z,1018.39
2023-04-17T00:49:28.265Z,1018.42
2023-04-17T00:50:28.294Z,1018.40
2023-04-17T00:51:28.315Z,1018.44
2023-04-17T00:52:28.346Z,1018.44
2023-04-17T00:53:28.352Z,1018.41
2023-04-17T00:54:28.376Z,1018.38
2023-04-17T00:55:28.413Z,1018.36
2023-04-17T00:56:28.420Z,1018.40
2023-04-17T00:57:28.443Z,1018.40
2023-04-17T00:58:28.454Z,1018.42
2023-04-17T00:59:28.486Z,1018.39
2023-04-17T01:00:28.519Z,1018.39
2023-04-17T01:01:28.580Z,1018.38
2023-04-17T01:02:28.683Z,1018.37
2023-04-17T01:03:28.706Z,1018.38
2023-04-17T01:04:28.644Z,1018.40
2023-04-17T01:05:28.615Z,1018.38
2023-04-17T01:06:28.660Z,1018.38
2023-04-17T01:07:28.664Z,1018.34
2023-04-17T01:08:28.684Z,1018.38
2023-04-17T01:09:28.704Z,1018.37
2023-04-17T01:10:28.730Z,1018.36
2023-04-17T01:11:28.746Z,1018.36
2023-04-17T01:12:28.773Z,1018.37
2023-04-17T01:13:28.789Z,1018.39
2023-04-17T01:14:28.810Z,1018.37
2023-04-17T01:15:28.867Z,1018.41
2023-04-17T01:16:28.873Z,1018.38
2023-04-17T01:17:28.888Z,1018.35
2023-04-17T01:18:28.898Z,1018.42
2023-04-17T01:19:28.920Z,1018.37
2023-04-17T01:20:28.945Z,1018.41
2023-04-17T01:21:28.964Z,1018.41
2023-04-17T01:22:28.986Z,1018.45
2023-04-17T01:23:29.010Z,1018.42
2023-04-17T01:24:29.031Z,1018.44
2023-04-17T01:25:29.048Z,1018.44
2023-04-17T01:26:29.073Z,1018.41
2023-04-17T01:27:29.096Z,1018.46
2023-04-17T01:28:29.120Z,1018.44
2023-04-17T01:29:29.137Z,1018.43
2023-04-17T01:30:29.162Z,1018.44
2023-04-17T01:31:29.229Z,1018.47
2023-04-17T01:32:29.229Z,1018.48
2023-04-17T01:33:29.227Z,1018.47
2023-04-17T01:34:29.248Z,1018.46
2023-04-17T01:35:29.264Z,1018.44
2023-04-17T01:36:29.295Z,1018.45
2023-04-17T01:37:29.317Z,1018.46
2023-04-17T01:38:29.336Z,1018.43
2023-04-17T01:39:29.366Z,1018.47
2023-04-17T01:40:29.389Z,1018.48
2023-04-17T01:41:29.407Z,1018.51
2023-04-17T01:42:29.443Z,1018.49
2023-04-17T01:43:29.447Z,1018.52
2023-04-17T01:44:29.470Z,1018.53
2023-04-17T01:45:29.496Z,1018.57
2023-04-17T01:46:29.573Z,1018.55
2023-04-17T01:47:29.566Z,1018.58
2023-04-17T01:48:29.557Z,1018.54
2023-04-17T01:49:29.581Z,1018.59
2023-04-17T01:50:29.604Z,1018.58
2023-04-17T01:51:29.622Z,1018.62
2023-04-17T01:52:29.644Z,1018.57
2023-04-17T01:53:29.666Z,1018.58
2023-04-17T01:54:29.695Z,1018.58
2023-04-17T01:55:29.711Z,1018.59
2023-04-17T01:56:29.738Z,1018.58
2023-04-17T01:57:29.754Z,1018.61
2023-04-17T01:58:29.781Z,1018.59
2023-04-17T01:59:29.797Z,1018.61
2023-04-17T02:00:29.820Z,1018.60
2023-04-17T02:01:29.872Z,1018.58
2023-04-17T02:02:29.969Z,1018.62
2023-04-17T02:03:29.993Z,1018.61
2023-04-17T02:04:30.012Z,1018.61
2023-04-17T02:05:29.929Z,1018.63
2023-04-17T02:06:29.953Z,1018.61
2023-04-17T02:07:29.974Z,1018.60
2023-04-17T02:08:30.038Z,1018.60
2023-04-17T02:09:30.054Z,1018.62
2023-04-17T02:10:30.055Z,1018.63
2023-04-17T02:11:30.066Z,1018.63
2023-04-17T02:12:30.089Z,1018.60
2023-04-17T02:13:30.106Z,1018.57
2023-04-17T02:14:30.125Z,1018.55
2023-04-17T02:15:30.151Z,1018.57
2023-04-17T02:16:30.208Z,1018.56
2023-04-17T02:17:30.212Z,1018.59
2023-04-17T02:18:30.211Z,1018.60
2023-04-17T02:19:30.235Z,1018.60
2023-04-17T02:20:30.264Z,1018.57
2023-04-17T02:21:30.290Z,1018.60
2023-04-17T02:22:30.299Z,1018.57
2023-04-17T02:23:30.325Z,1018.54
2023-04-17T02:24:30.342Z,1018.59
2023-04-17T02:25:30.366Z,1018.54
2023-04-17T02:26:30.393Z,1018.56
2023-04-17T02:27:30.412Z,1018.59
2023-04-17T02:28:30.433Z,1018.56
2023-04-17T02:29:30.452Z,1018.56
2023-04-17T02:30:30.478Z,1018.57
2023-04-17T02:31:30.536Z,1018.61
2023-04-17T02:32:30.560Z,1018.57
2023-04-17T02:33:30.539Z,1018.55
2023-04-17T02:34:30.557Z,1018.59
2023-04-17T02:35:30.584Z,1018.59
2023-04-17T02:36:30.611Z,1018.55
2023-04-17T02:37:30.625Z,1018.54
2023-04-17T02:38:30.674Z,1018.58
2023-04-17T02:39:30.670Z,1018.57
2023-04-17T02:40:30.692Z,1018.55
2023-04-17T02:41:30.717Z,1018.55
2023-04-17T02:42:30.732Z,1018.53
2023-04-17T02:43:30.757Z,1018.58
2023-04-17T02:44:30.785Z,1018.52
2023-04-17T02:45:30.799Z,1018.55
2023-04-17T02:46:30.848Z,1018.52
2023-04-17T02:47:30.868Z,1018.52
2023-04-17T02:48:30.870Z,1018.52
2023-04-17T02:49:30.891Z,1018.49
2023-04-17T02:50:30.910Z,1018.56
2023-04-17T02:51:30.942Z,1018.55
2023-04-17T02:52:30.950Z,1018.58
2023-04-17T02:53:30.973Z,1018.56
2023-04-17T02:54:30.993Z,1018.55
2023-04-17T02:55:31.025Z,1018.55
2023-04-17T02:56:31.043Z,1018.57
2023-04-17T02:57:31.063Z,1018.56
2023-04-17T02:58:31.098Z,1018.55
2023-04-17T02:59:31.105Z,1018.55
2023-04-17T03:00:31.128Z,1018.56
2023-04-17T03:01:31.196Z,1018.55
2023-04-17T03:02:31.267Z,1018.55
2023-04-17T03:03:31.421Z,1018.54
2023-04-17T03:04:31.212Z,1018.52
2023-04-17T03:05:31.234Z,1018.53
2023-04-17T03:06:31.260Z,1018.55
2023-04-17T03:07:31.278Z,1018.54
2023-04-17T03:08:33.101Z,1018.53
2023-04-17T03:09:31.330Z,1018.57
2023-04-17T03:10:31.345Z,1018.56
2023-04-17T03:11:31.369Z,1018.51
2023-04-17T03:12:31.387Z,1018.57
2023-04-17T03:13:31.478Z,1018.63
2023-04-17T03:14:31.443Z,1018.59
2023-04-17T03:15:31.459Z,1018.64
2023-04-17T03:16:31.487Z,1018.65
2023-04-17T03:17:31.526Z,1018.66
2023-04-17T03:18:31.529Z,1018.67
2023-04-17T03:19:31.538Z,1018.68
2023-04-17T03:20:31.575Z,1018.66
2023-04-17T03:21:31.581Z,1018.66
2023-04-17T03:22:31.605Z,1018.65
2023-04-17T03:23:31.624Z,1018.64
2023-04-17T03:24:31.744Z,1018.69
2023-04-17T03:25:31.665Z,1018.66
2023-04-17T03:26:31.690Z,1018.65
2023-04-17T03:27:31.721Z,1018.70
2023-04-17T03:28:31.732Z,1018.67
2023-04-17T03:29:31.761Z,1018.67
2023-04-17T03:30:31.779Z,1018.66
2023-04-17T03:31:31.806Z,1018.65
2023-04-17T03:32:31.835Z,1018.69
2023-04-17T03:33:31.842Z,1018.64
2023-04-17T03:34:31.859Z,1018.69
2023-04-17T03:35:31.887Z,1018.68
2023-04-17T03:36:31.913Z,1018.67
2023-04-17T03:37:31.940Z,1018.68
2023-04-17T03:38:31.946Z,1018.65
2023-04-17T03:39:31.970Z,1018.68
2023-04-17T03:40:33.626Z,1018.67
2023-04-17T03:41:32.015Z,1018.68
2023-04-17T03:42:32.039Z,1018.65
2023-04-17T03:43:32.064Z,1018.70
2023-04-17T03:44:32.085Z,1018.71
2023-04-17T03:45:32.172Z,1018.72
2023-04-17T03:46:32.120Z,1018.71
2023-04-17T03:47:32.152Z,1018.70
2023-04-17T03:48:32.170Z,1018.71
2023-04-17T03:49:32.184Z,1018.69
2023-04-17T03:50:32.212Z,1018.70
2023-04-17T03:51:32.233Z,1018.74
2023-04-17T03:52:32.248Z,1018.73
2023-04-17T03:53:32.270Z,1018.77
2023-04-17T03:54:32.297Z,1018.74
2023-04-17T03:55:32.317Z,1018.74
2023-04-17T03:56:32.335Z,1018.71
2023-04-17T03:57:32.360Z,1018.76
2023-04-17T03:58:32.374Z,1018.74
2023-04-17T03:59:32.401Z,1018.81
2023-04-17T04:00:32.414Z,1018.75
2023-04-17T04:01:32.440Z,1018.77
2023-04-17T04:02:32.635Z,1018.78
2023-04-17T04:03:32.880Z,1018.78
2023-04-17T04:04:32.610Z,1018.75
2023-04-17T04:05:32.522Z,1018.80
2023-04-17T04:06:32.541Z,1018.84
2023-04-17T04:07:32.565Z,1018.78
2023-04-17T04:08:32.595Z,1018.76
2023-04-17T04:09:32.611Z,1018.78
2023-04-17T04:10:32.675Z,1018.82
2023-04-17T04:11:32.649Z,1018.83
2023-04-17T04:12:32.677Z,1018.80
2023-04-17T04:13:32.716Z,1018.81
2023-04-17T04:14:32.716Z,1018.82
2023-04-17T04:15:32.748Z,1018.82
2023-04-17T04:16:32.807Z,1018.85
2023-04-17T04:17:32.831Z,1018.81
2023-04-17T04:18:32.805Z,1018.82
2023-04-17T04:19:32.832Z,1018.83
2023-04-17T04:20:32.861Z,1018.81
2023-04-17T04:21:32.869Z,1018.83
2023-04-17T04:22:32.888Z,1018.86
2023-04-17T04:23:32.908Z,1018.85
2023-04-17T04:24:32.926Z,1018.86
2023-04-17T04:25:32.949Z,1018.88
2023-04-17T04:26:32.971Z,1018.91
2023-04-17T04:27:33.074Z,1018.86
2023-04-17T04:28:33.012Z,1018.88
2023-04-17T04:29:33.049Z,1018.89
2023-04-17T04:30:33.057Z,1018.89
2023-04-17T04:31:33.147Z,1018.89
2023-04-17T04:32:33.149Z,1018.91
2023-04-17T04:33:33.122Z,1018.91
2023-04-17T04:34:33.160Z,1018.89
2023-04-17T04:35:33.167Z,1018.89
2023-04-17T04:36:33.189Z,1018.92
2023-04-17T04:37:33.215Z,1018.89
2023-04-17T04:38:33.360Z,1018.90
2023-04-17T04:39:33.258Z,1018.90
2023-04-17T04:40:33.275Z,1018.95
2023-04-17T04:41:33.295Z,1018.95
2023-04-17T04:42:33.319Z,1018.92
2023-04-17T04:43:33.338Z,1018.96
2023-04-17T04:44:33.375Z,1018.95
2023-04-17T04:45:33.378Z,1018.93
2023-04-17T04:46:33.442Z,1018.98
2023-04-17T04:47:33.507Z,1018.94
2023-04-17T04:48:33.441Z,1018.94
2023-04-17T04:49:33.471Z,1018.97
2023-04-17T04:50:33.491Z,1018.97
2023-04-17T04:51:33.504Z,1019.00
2023-04-17T04:52:33.534Z,1019.01
2023-04-17T04:53:33.567Z,1019.00
2023-04-17T04:54:33.574Z,1018.96
2023-04-17T04:55:33.624Z,1018.99
2023-04-17T04:56:33.619Z,1019.01
2023-04-17T04:57:33.636Z,1019.00
2023-04-17T04:58:33.657Z,1019.07
2023-04-17T04:59:33.681Z,1019.10
2023-04-17T05:00:33.701Z,1019.09
2023-04-17T05:01:33.876Z,1019.10
2023-04-17T05:02:34.083Z,1019.13
2023-04-17T05:03:34.007Z,1019.09
2023-04-17T05:04:33.861Z,1019.12
2023-04-17T05:05:33.811Z,1019.11
2023-04-17T05:06:33.842Z,1019.16
2023-04-17T05:07:33.881Z,1019.12
2023-04-17T05:08:33.888Z,1019.15
2023-04-17T05:09:33.898Z,1019.16
2023-04-17T05:10:33.921Z,1019.20
2023-04-17T05:11:33.941Z,1019.21
2023-04-17T05:12:33.964Z,1019.20
2023-04-17T05:13:33.986Z,1019.21
2023-04-17T05:14:34.018Z,1019.23
2023-04-17T05:15:34.035Z,1019.27
2023-04-17T05:16:34.078Z,1019.26
2023-04-17T05:17:34.080Z,1019.24
2023-04-17T05:18:34.092Z,1019.28
2023-04-17T05:19:34.133Z,1019.26
2023-04-17T05:20:34.134Z,1019.31
2023-04-17T05:21:34.156Z,1019.32
2023-04-17T05:22:34.192Z,1019.30
2023-04-17T05:23:34.200Z,1019.33
2023-04-17T05:24:34.229Z,1019.33
2023-04-17T05:25:34.247Z,1019.34
2023-04-17T05:26:34.265Z,1019.38
2023-04-17T05:27:34.287Z,1019.39
2023-04-17T05:28:34.311Z,1019.40
2023-04-17T05:29:34.331Z,1019.41
2023-04-17T05:30:34.350Z,1019.37
2023-04-17T05:31:34.424Z,1019.43
2023-04-17T05:32:34.408Z,1019.45
2023-04-17T05:33:34.416Z,1019.45
2023-04-17T05:34:34.441Z,1019.46
2023-04-17T05:35:34.456Z,1019.46
2023-04-17T05:36:34.487Z,1019.47
2023-04-17T05:37:34.500Z,1019.47
2023-04-17T05:38:34.541Z,1019.47
2023-04-17T05:39:34.541Z,1019.46
2023-04-17T05:40:34.572Z,1019.49
2023-04-17T05:41:34.586Z,1019.48
2023-04-17T05:42:34.627Z,1019.52
2023-04-17T05:43:34.630Z,1019.51
2023-04-17T05:44:34.653Z,1019.57
2023-04-17T05:45:34.698Z,1019.61
2023-04-17T05:46:34.690Z,1019.60
2023-04-17T05:47:34.789Z,1019.59
2023-04-17T05:48:34.748Z,1019.66
2023-04-17T05:49:34.751Z,1019.66
2023-04-17T05:50:34.782Z,1019.65
2023-04-17T05:51:34.798Z,1019.65
2023-04-17T05:52:35.003Z,1019.64
2023-04-17T05:53:34.845Z,1019.65
2023-04-17T05:54:34.863Z,1019.63
2023-04-17T05:55:34.885Z,1019.64
2023-04-17T05:56:34.916Z,1019.69
2023-04-17T05:57:34.937Z,1019.71
2023-04-17T05:58:34.952Z,1019.68
2023-04-17T05:59:34.979Z,1019.70
2023-04-17T06:00:35.010Z,1019.71
2023-04-17T06:01:35.011Z,1019.70
2023-04-17T06:02:35.225Z,1019.77
2023-04-17T06:03:35.472Z,1019.75
2023-04-17T06:04:35.446Z,1019.78
2023-04-17T06:05:35.165Z,1019.79
2023-04-17T06:06:35.124Z,1019.79
2023-04-17T06:07:35.148Z,1019.78
2023-04-17T06:08:35.169Z,1019.77
2023-04-17T06:09:35.194Z,1019.80
2023-04-17T06:10:35.218Z,1019.79
2023-04-17T06:11:35.237Z,1019.77
2023-04-17T06:12:35.296Z,1019.80
2023-04-17T06:13:35.283Z,1019.77
2023-04-17T06:14:35.374Z,1019.83
2023-04-17T06:15:35.337Z,1019.82
2023-04-17T06:16:35.367Z,1019.84
2023-04-17T06:17:35.374Z,1019.86
2023-04-17T06:18:35.386Z,1019.82
2023-04-17T06:19:35.418Z,1019.88
2023-04-17T06:20:35.758Z,1019.86
2023-04-17T06:21:35.455Z,1019.89
2023-04-17T06:22:35.477Z,1019.88
2023-04-17T06:23:35.495Z,1019.90
2023-04-17T06:24:35.518Z,1019.92
2023-04-17T06:25:35.540Z,1019.87
2023-04-17T06:26:35.591Z,1019.92
2023-04-17T06:27:36.986Z,1019.89
2023-04-17T06:28:35.615Z,1019.88
2023-04-17T06:29:35.631Z,1019.90
2023-04-17T06:30:35.750Z,1019.88
2023-04-17T06:31:35.734Z,1019.88
2023-04-17T06:32:35.712Z,1019.83
2023-04-17T06:33:35.717Z,1019.89
2023-04-17T06:34:38.166Z,1019.86
2023-04-17T06:35:35.880Z,1019.86
2023-04-17T06:36:35.787Z,1019.97
2023-04-17T06:37:35.806Z,1019.91
2023-04-17T06:38:35.831Z,1019.91
2023-04-17T06:39:35.855Z,1019.90
2023-04-17T06:40:35.882Z,1019.96
2023-04-17T06:41:35.898Z,1019.97
2023-04-17T06:42:35.919Z,1019.94
2023-04-17T06:43:35.956Z,1019.97
2023-04-17T06:44:35.962Z,1019.93
2023-04-17T06:45:35.988Z,1019.95
2023-04-17T06:46:36.061Z,1019.97
2023-04-17T06:47:36.044Z,1020.00
2023-04-17T06:48:36.062Z,1019.98
2023-04-17T06:49:36.080Z,1020.00
2023-04-17T06:50:36.096Z,1020.02
2023-04-17T06:51:36.134Z,1020.03
2023-04-17T06:52:36.155Z,1020.04
2023-04-17T06:53:36.191Z,1020.07
2023-04-17T06:54:36.206Z,1020.13
2023-04-17T06:55:36.214Z,1020.12
2023-04-17T06:56:36.231Z,1020.14
2023-04-17T06:57:36.252Z,1020.09
2023-04-17T06:58:36.276Z,1020.13
2023-04-17T06:59:36.296Z,1020.21
2023-04-17T07:00:36.351Z,1020.16
2023-04-17T07:01:36.437Z,1020.19
2023-04-17T07:02:36.462Z,1020.17
2023-04-17T07:03:36.516Z,1020.18
2023-04-17T07:04:36.500Z,1020.19
2023-04-17T07:05:36.430Z,1020.21
2023-04-17T07:06:36.479Z,1020.25
2023-04-17T07:07:36.487Z,1020.21
2023-04-17T07:08:36.499Z,1020.22
2023-04-17T07:09:36.524Z,1020.21
2023-04-17T07:10:36.563Z,1020.25
2023-04-17T07:11:36.571Z,1020.21
2023-04-17T07:12:36.600Z,1020.25
2023-04-17T07:13:36.615Z,1020.32
2023-04-17T07:14:36.637Z,1020.31
2023-04-17T07:15:36.842Z,1020.30
2023-04-17T07:16:36.702Z,1020.30
2023-04-17T07:17:36.832Z,1020.33
2023-04-17T07:18:36.735Z,1020.43
2023-04-17T07:19:36.752Z,1020.36
2023-04-17T07:20:36.776Z,1020.35
2023-04-17T07:21:36.796Z,1020.35
2023-04-17T07:22:36.855Z,1020.38
2023-04-17T07:23:36.842Z,1020.35
2023-04-17T07:24:36.867Z,1020.35
2023-04-17T07:25:36.887Z,1020.30
2023-04-17T07:26:36.921Z,1020.33
2023-04-17T07:27:36.934Z,1020.38
2023-04-17T07:28:36.959Z,1020.35
2023-04-17T07:29:36.983Z,1020.41
2023-04-17T07:30:37.009Z,1020.34
2023-04-17T07:31:37.063Z,1020.42
2023-04-17T07:32:37.070Z,1020.36
2023-04-17T07:33:40.084Z,1020.40
2023-04-17T07:34:37.098Z,1020.44
2023-04-17T07:35:37.123Z,1020.46
2023-04-17T07:36:37.145Z,1020.44
2023-04-17T07:37:37.230Z,1020.40
2023-04-17T07:38:39.106Z,1020.45
2023-04-17T07:39:37.281Z,1020.43
2023-04-17T07:40:37.238Z,1020.44
2023-04-17T07:41:37.255Z,1020.44
2023-04-17T07:42:37.288Z,1020.52
2023-04-17T07:43:37.298Z,1020.48
2023-04-17T07:44:37.345Z,1020.43
2023-04-17T07:45:39.204Z,1020.40
2023-04-17T07:46:37.422Z,1020.43
2023-04-17T07:47:37.449Z,1020.46
2023-04-17T07:48:37.436Z,1020.49
2023-04-17T07:49:37.445Z,1020.41
2023-04-17T07:50:37.464Z,1020.40
2023-04-17T07:51:37.492Z,1020.54
2023-04-17T07:52:37.515Z,1020.43
2023-04-17T07:53:37.546Z,1020.39
2023-04-17T07:54:37.563Z,1020.40
2023-04-17T07:55:37.612Z,1020.37
2023-04-17T07:56:37.619Z,1020.45
2023-04-17T07:57:37.632Z,1020.42
2023-04-17T07:58:37.654Z,1020.38
2023-04-17T07:59:37.701Z,1020.42
2023-04-17T08:00:37.704Z,1020.42
2023-04-17T08:01:37.724Z,1020.44
2023-04-17T08:02:37.871Z,1020.43
2023-04-17T08:03:38.005Z,1020.45
2023-04-17T08:04:37.851Z,1020.45
2023-04-17T08:05:37.818Z,1020.43
2023-04-17T08:06:37.846Z,1020.44
2023-04-17T08:07:37.865Z,1020.53
2023-04-17T08:08:37.904Z,1020.50
2023-04-17T08:09:37.913Z,1020.47
2023-04-17T08:10:37.939Z,1020.46
2023-04-17T08:11:46.031Z,1020.43
2023-04-17T08:12:37.984Z,1020.55
2023-04-17T08:13:38.004Z,1020.45
2023-04-17T08:14:38.039Z,1020.48
2023-04-17T08:15:39.513Z,1020.48
2023-04-17T08:16:38.102Z,1020.54
2023-04-17T08:17:38.226Z,1020.51
2023-04-17T08:18:38.126Z,1020.53
2023-04-17T08:19:38.149Z,1020.52
2023-04-17T08:20:38.178Z,1020.51
2023-04-17T08:21:38.195Z,1020.58
2023-04-17T08:22:38.231Z,1020.57
2023-04-17T08:23:38.243Z,1020.57
2023-04-17T08:24:38.285Z,1020.57
2023-04-17T08:25:38.306Z,1020.58
2023-04-17T08:26:38.313Z,1020.60
2023-04-17T08:27:38.339Z,1020.59
2023-04-17T08:28:38.365Z,1020.66
2023-04-17T08:29:38.387Z,1020.66
2023-04-17T08:30:38.436Z,1020.62
2023-04-17T08:31:38.436Z,1020.65
2023-04-17T08:32:38.495Z,1020.65
2023-04-17T08:33:38.514Z,1020.66
2023-04-17T08:34:38.509Z,1020.70
2023-04-17T08:35:38.536Z,1020.66
2023-04-17T08:36:38.557Z,1020.68
2023-04-17T08:37:38.588Z,1020.72
2023-04-17T08:38:38.611Z,1020.71
2023-04-17T08:39:38.633Z,1020.73
2023-04-17T08:40:38.650Z,1020.73
2023-04-17T08:41:38.676Z,1020.77
2023-04-17T08:42:38.699Z,1020.74
2023-04-17T08:43:38.727Z,1020.80
2023-04-17T08:44:38.757Z,1020.76
2023-04-17T08:45:38.782Z,1020.76
2023-04-17T08:46:38.907Z,1020.73
2023-04-17T08:47:38.861Z,1020.80
2023-04-17T08:48:38.841Z,1020.76
2023-04-17T08:49:38.865Z,1020.81
2023-04-17T08:50:38.886Z,1020.79
2023-04-17T08:51:38.912Z,1020.82
2023-04-17T08:52:38.942Z,1020.85
2023-04-17T08:53:38.966Z,1020.79
2023-04-17T08:54:39.083Z,1020.83
2023-04-17T08:55:39.006Z,1020.80
2023-04-17T08:56:39.048Z,1020.86
2023-04-17T08:57:39.057Z,1020.84
2023-04-17T08:58:39.078Z,1020.81
2023-04-17T08:59:39.106Z,1020.84
2023-04-17T09:00:39.138Z,1020.83
2023-04-17T09:01:39.180Z,1020.78
2023-04-17T09:02:39.281Z,1020.78
2023-04-17T09:03:39.325Z,1020.77
2023-04-17T09:04:39.349Z,1020.86
2023-04-17T09:05:39.254Z,1020.79
2023-04-17T09:06:39.285Z,1020.84
2023-04-17T09:07:39.295Z,1020.89
2023-04-17T09:08:39.322Z,1020.87
2023-04-17T09:09:39.344Z,1020.92
2023-04-17T09:10:39.371Z,1020.95
2023-04-17T09:11:39.394Z,1020.93
2023-04-17T09:12:39.418Z,1020.91
2023-04-17T09:13:39.454Z,1020.91
2023-04-17T09:14:39.484Z,1020.95
2023-04-17T09:15:39.517Z,1020.99
2023-04-17T09:16:39.575Z,1020.96
2023-04-17T09:17:39.598Z,1020.94
2023-04-17T09:18:39.566Z,1020.98
2023-04-17T09:19:39.597Z,1020.92
2023-04-17T09:20:39.625Z,1020.90
2023-04-17T09:21:39.640Z,1020.98
2023-04-17T09:22:39.659Z,1020.94
2023-04-17T09:23:39.688Z,1020.91
2023-04-17T09:24:39.726Z,1020.94
2023-04-17T09:25:39.740Z,1020.92
2023-04-17T09:26:39.765Z,1020.95
2023-04-17T09:27:39.788Z,1020.93
2023-04-17T09:28:39.810Z,1020.91
2023-04-17T09:29:39.835Z,1020.93
2023-04-17T09:30:39.861Z,1020.90
2023-04-17T09:31:40.025Z,1020.90
2023-04-17T09:32:39.959Z,1020.95
2023-04-17T09:33:39.936Z,1020.91
2023-04-17T09:34:39.948Z,1020.90
2023-04-17T09:35:40.536Z,1020.97
2023-04-17T09:36:40.001Z,1020.86
2023-04-17T09:37:40.026Z,1020.90
2023-04-17T09:38:40.066Z,1020.90
2023-04-17T09:39:40.073Z,1020.86
2023-04-17T09:40:40.094Z,1020.91
2023-04-17T09:41:40.138Z,1020.89
2023-04-17T09:42:40.157Z,1020.86
2023-04-17T09:43:40.172Z,1020.99
2023-04-17T09:44:40.192Z,1020.90
2023-04-17T09:45:40.215Z,1020.89
2023-04-17T09:46:40.272Z,1020.86
2023-04-17T09:47:40.350Z,1020.87
2023-04-17T09:48:40.290Z,1020.86
2023-04-17T09:49:40.322Z,1020.94
2023-04-17T09:50:40.339Z,1020.98
2023-04-17T09:51:40.361Z,1020.94
2023-04-17T09:52:40.386Z,1020.95
2023-04-17T09:53:40.427Z,1020.91
2023-04-17T09:54:40.437Z,1020.99
2023-04-17T09:55:40.455Z,1020.93
2023-04-17T09:56:40.481Z,1020.91
2023-04-17T09:57:41.831Z,1020.93
2023-04-17T09:58:40.534Z,1020.99
2023-04-17T09:59:40.549Z,1020.90
2023-04-17T10:00:40.601Z,1020.93
2023-04-17T10:01:40.608Z,1020.92
2023-04-17T10:02:40.715Z,1020.99
2023-04-17T10:03:40.844Z,1020.94
2023-04-17T10:04:40.731Z,1020.91
2023-04-17T10:05:40.692Z,1020.98
2023-04-17T10:06:40.730Z,1020.98
2023-04-17T10:07:40.740Z,1020.87
2023-04-17T10:08:40.767Z,1020.92
2023-04-17T10:09:40.793Z,1020.91
2023-04-17T10:10:40.815Z,1020.84
2023-04-17T10:11:40.847Z,1020.85
2023-04-17T10:12:40.864Z,1020.91
2023-04-17T10:13:40.894Z,1020.89
2023-04-17T10:14:40.920Z,1020.92
2023-04-17T10:15:40.945Z,1020.92
2023-04-17T10:16:40.995Z,1021.00
2023-04-17T10:17:41.017Z,1020.90
2023-04-17T10:18:41.012Z,1020.95
2023-04-17T10:19:41.075Z,1020.91
2023-04-17T10:20:41.083Z,1020.90
2023-04-17T10:21:41.082Z,1020.91
2023-04-17T10:22:41.167Z,1021.00
2023-04-17T10:23:41.139Z,1020.86
2023-04-17T10:24:41.165Z,1020.86
2023-04-17T10:25:41.199Z,1020.87
2023-04-17T10:26:41.255Z,1020.89
2023-04-17T10:27:41.265Z,1020.92
2023-04-17T10:28:41.263Z,1020.82
2023-04-17T10:29:41.289Z,1020.89
2023-04-17T10:30:44.106Z,1020.90
2023-04-17T10:31:41.363Z,1020.87
2023-04-17T10:32:41.397Z,1020.94
2023-04-17T10:33:41.390Z,1020.88
2023-04-17T10:34:43.848Z,1020.84
2023-04-17T10:35:41.570Z,1020.79
2023-04-17T10:36:41.462Z,1020.90
2023-04-17T10:37:41.486Z,1020.76
2023-04-17T10:38:41.513Z,1020.82
2023-04-17T10:39:41.539Z,1020.84
2023-04-17T10:40:41.564Z,1020.80
2023-04-17T10:41:41.586Z,1020.78
2023-04-17T10:42:41.611Z,1020.74
2023-04-17T10:43:41.709Z,1020.72
2023-04-17T10:44:41.677Z,1020.78
2023-04-17T10:45:41.734Z,1020.76
2023-04-17T10:46:41.717Z,1020.73
2023-04-17T10:47:42.974Z,1020.75
2023-04-17T10:48:41.846Z,1020.74
2023-04-17T10:49:41.809Z,1020.77
2023-04-17T10:50:41.822Z,1020.75
2023-04-17T10:51:41.838Z,1020.71
2023-04-17T10:52:41.915Z,1020.71
2023-04-17T10:53:41.892Z,1020.71
2023-04-17T10:54:41.912Z,1020.72
2023-04-17T10:55:41.939Z,1020.66
2023-04-17T10:56:41.970Z,1020.64
2023-04-17T10:57:41.991Z,1020.77
2023-04-17T10:58:42.011Z,1020.65
2023-04-17T10:59:42.039Z,1020.67
2023-04-17T11:00:42.064Z,1020.62
2023-04-17T11:01:42.207Z,1020.64
2023-04-17T11:02:42.174Z,1020.62
2023-04-17T11:03:42.195Z,1020.62
2023-04-17T11:04:42.206Z,1020.67
2023-04-17T11:05:42.195Z,1020.69
2023-04-17T11:06:42.212Z,1020.62
2023-04-17T11:07:42.256Z,1020.69
2023-04-17T11:08:42.259Z,1020.53
2023-04-17T11:09:42.285Z,1020.50
2023-04-17T11:10:42.313Z,1020.55
2023-04-17T11:11:44.478Z,1020.56
2023-04-17T11:12:42.361Z,1020.63
2023-04-17T11:13:42.385Z,1020.59
2023-04-17T11:14:42.408Z,1020.53
2023-04-17T11:15:42.433Z,1020.53
2023-04-17T11:16:42.514Z,1020.55
2023-04-17T11:17:42.527Z,1020.56
2023-04-17T11:18:42.506Z,1020.59
2023-04-17T11:19:43.325Z,1020.57
2023-04-17T11:20:42.560Z,1020.57
2023-04-17T11:21:42.591Z,1020.54
2023-04-17T11:22:42.604Z,1020.54
2023-04-17T11:23:42.654Z,1020.51
2023-04-17T11:24:42.659Z,1020.49
2023-04-17T11:25:43.794Z,1020.45
2023-04-17T11:26:42.704Z,1020.54
2023-04-17T11:27:42.730Z,1020.48
2023-04-17T11:28:42.764Z,1020.45
2023-04-17T11:29:42.778Z,1020.50
2023-04-17T11:30:42.805Z,1020.59
2023-04-17T11:31:42.859Z,1020.53
2023-04-17T11:32:42.884Z,1020.54
2023-04-17T11:33:42.877Z,1020.51
2023-04-17T11:34:42.977Z,1020.47
2023-04-17T11:35:43.039Z,1020.53
2023-04-17T11:36:42.955Z,1020.50
2023-04-17T11:37:42.975Z,1020.48
2023-04-17T11:38:43.006Z,1020.62
2023-04-17T11:39:43.028Z,1020.56
2023-04-17T11:40:43.052Z,1020.47
2023-04-17T11:41:43.078Z,1020.50
2023-04-17T11:42:43.113Z,1020.51
2023-04-17T11:43:43.123Z,1020.47
2023-04-17T11:44:43.149Z,1020.54
2023-04-17T11:45:43.176Z,1020.42
2023-04-17T11:46:43.244Z,1020.46
2023-04-17T11:47:43.249Z,1020.52
2023-04-17T11:48:43.252Z,1020.50
2023-04-17T11:49:43.272Z,1020.63
2023-04-17T11:50:43.296Z,1020.52
2023-04-17T11:51:43.324Z,1020.52
2023-04-17T11:52:43.348Z,1020.52
2023-04-17T11:53:43.371Z,1020.52
2023-04-17T11:54:43.393Z,1020.55
2023-04-17T11:55:43.422Z,1020.57
2023-04-17T11:56:43.444Z,1020.58
2023-04-17T11:57:43.493Z,1020.55
2023-04-17T11:58:43.494Z,1020.53
2023-04-17T11:59:43.519Z,1020.52
2023-04-17T12:00:43.609Z,1020.65
2023-04-17T12:01:43.566Z,1020.55
2023-04-17T12:02:43.669Z,1020.56
2023-04-17T12:03:45.424Z,1020.52
2023-04-17T12:04:43.879Z,1020.59
2023-04-17T12:05:43.720Z,1020.52